Time;durP1;ratioP1;P1;durP2;ratioP2;P2;SDS_P1;SDS_P2;PMS_P1;PMS_P2;Temp;Humidity;BMP_temperature;BMP_pressure;BME280_temperature;BME280_humidity;BME280_pressure;Samples;Min_cycle;Max_cycle;Signal;HPM_P1;HPM_P2
2023/08/28 00:02:13;;;;;;;12.00;10.57;;;;;;;;;;5088995;28;20028;-68
2023/08/28 00:04:39;;;;;;;12.65;9.93;;;;;;;;;;5089065;28;20024;-68
2023/08/28 00:07:05;;;;;;;10.65;9.30;;;;;;;;;;5088404;28;20036;-68
2023/08/28 00:09:32;;;;;;;12.98;9.95;;;;;;;;;;5088458;28;20068;-67
2023/08/28 00:11:58;;;;;;;11.80;10.27;;;;;;;;;;5089361;28;20032;-68
2023/08/28 00:14:24;;;;;;;12.88;9.93;;;;;;;;;;5088543;28;20028;-68
2023/08/28 00:16:50;;;;;;;15.65;11.05;;;;;;;;;;5089036;28;20086;-68
2023/08/28 00:19:17;;;;;;;12.07;10.25;;;;;;;;;;5089097;28;20031;-67
2023/08/28 00:21:43;;;;;;;12.07;9.25;;;;;;;;;;5088746;28;20057;-67
2023/08/28 00:24:09;;;;;;;13.32;8.98;;;;;;;;;;5088750;28;20043;-68
2023/08/28 00:26:35;;;;;;;13.07;10.25;;;;;;;;;;5088380;28;20075;-68
2023/08/28 00:29:01;;;;;;;11.77;9.65;;;;;;;;;;5088006;28;20062;-68
2023/08/28 00:31:27;;;;;;;15.02;10.70;;;;;;;;;;5089493;28;20390;-67
2023/08/28 00:33:53;;;;;;;13.32;9.13;;;;;;;;;;5092847;28;20420;-67
2023/08/28 00:36:20;;;;;;;14.00;9.88;;;;;;;;;;5092580;28;20108;-68
2023/08/28 00:38:46;;;;;;;14.07;9.43;;;;;;;;;;5092483;28;20115;-68
2023/08/28 00:41:13;;;;;;;11.15;9.23;;;;;;;;;;5092864;28;20103;-68
2023/08/28 00:43:39;;;;;;;11.88;9.75;;;;;;;;;;5092126;28;20035;-68
2023/08/28 00:46:05;;;;;;;11.02;9.50;;;;;;;;;;5092405;28;20022;-68
2023/08/28 00:48:32;;;;;;;15.98;9.82;;;;;;;;;;5092082;28;20055;-68
2023/08/28 00:50:58;;;;;;;14.13;9.63;;;;;;;;;;5092252;28;20024;-68
2023/08/28 00:53:25;;;;;;;14.60;10.07;;;;;;;;;;5091998;28;20039;-68
2023/08/28 00:55:51;;;;;;;11.15;9.18;;;;;;;;;;5092043;28;20028;-68
2023/08/28 00:58:17;;;;;;;11.05;8.75;;;;;;;;;;5091409;28;20058;-69
2023/08/28 01:00:43;;;;;;;14.75;9.65;;;;;;;;;;5091762;28;20031;-68
2023/08/28 01:03:09;;;;;;;11.65;10.18;;;;;;;;;;5091663;28;20031;-69
2023/08/28 01:05:47;;;;;;;13.18;10.23;;;;;;;;;;5091782;28;20129;-68
2023/08/28 01:08:16;;;;;;;12.07;10.65;;;;;;;;;;5091676;28;20070;-68
2023/08/28 01:10:46;;;;;;;13.95;9.15;;;;;;;;;;5091891;28;20425;-68
2023/08/28 01:13:17;;;;;;;11.85;9.23;;;;;;;;;;5091870;28;20417;-68
2023/08/28 01:15:44;;;;;;;14.80;10.50;;;;;;;;;;5091501;28;20020;-69
2023/08/28 01:18:10;;;;;;;11.77;8.85;;;;;;;;;;5091345;28;20504;-67
2023/08/28 01:20:36;;;;;;;11.43;8.75;;;;;;;;;;5091379;28;20032;-69
2023/08/28 01:23:05;;;;;;;12.13;8.88;;;;;;;;;;5091676;28;20036;-68
2023/08/28 01:25:31;;;;;;;13.18;8.88;;;;;;;;;;5091526;28;20382;-69
2023/08/28 01:27:59;;;;;;;12.88;8.88;;;;;;;;;;5091317;28;20075;-68
2023/08/28 01:30:25;;;;;;;16.65;10.32;;;;;;;;;;5091471;28;20028;-68
2023/08/28 01:32:51;;;;;;;17.33;11.05;;;;;;;;;;5090726;28;20077;-68
2023/08/28 01:35:24;;;;;;;12.52;9.85;;;;;;;;;;5091166;28;20023;-68
2023/08/28 01:37:56;;;;;;;13.20;9.73;;;;;;;;;;5091768;28;20386;-68
2023/08/28 01:40:25;;;;;;;12.95;9.77;;;;;;;;;;5091561;28;20357;-68
2023/08/28 01:42:52;;;;;;;14.67;10.40;;;;;;;;;;5090384;28;20032;-68
2023/08/28 01:45:18;;;;;;;15.18;9.80;;;;;;;;;;5090879;28;20254;-68
2023/08/28 01:47:44;;;;;;;15.07;10.68;;;;;;;;;;5091158;28;20119;-68
2023/08/28 01:50:10;;;;;;;11.52;10.32;;;;;;;;;;5091401;28;20082;-68
2023/08/28 01:52:36;;;;;;;11.38;10.20;;;;;;;;;;5091008;28;20032;-68
2023/08/28 01:55:02;;;;;;;13.20;10.13;;;;;;;;;;5090981;28;20032;-69
2023/08/28 01:57:29;;;;;;;11.93;10.15;;;;;;;;;;5090196;28;20038;-68
2023/08/28 01:59:55;;;;;;;12.50;9.77;;;;;;;;;;5090647;28;20077;-68
2023/08/28 02:02:21;;;;;;;10.38;8.55;;;;;;;;;;5090588;28;20028;-68
2023/08/28 02:04:47;;;;;;;11.07;9.30;;;;;;;;;;5090950;28;20046;-68
2023/08/28 02:07:13;;;;;;;11.88;9.57;;;;;;;;;;5090295;28;20139;-69
2023/08/28 02:09:39;;;;;;;12.10;9.68;;;;;;;;;;5090395;28;20073;-68
2023/08/28 02:12:06;;;;;;;12.38;9.98;;;;;;;;;;5090123;28;20119;-68
2023/08/28 02:14:32;;;;;;;13.38;9.48;;;;;;;;;;5090021;28;20026;-68
2023/08/28 02:16:58;;;;;;;11.52;9.75;;;;;;;;;;5090538;28;20053;-68
2023/08/28 02:19:24;;;;;;;13.57;10.05;;;;;;;;;;5090161;28;20020;-68
2023/08/28 02:21:50;;;;;;;14.80;9.32;;;;;;;;;;5090428;28;20028;-68
2023/08/28 02:24:16;;;;;;;14.20;9.65;;;;;;;;;;5090530;28;20097;-68
2023/08/28 02:26:42;;;;;;;11.63;9.07;;;;;;;;;;5089732;28;20470;-68
2023/08/28 02:29:08;;;;;;;11.95;9.57;;;;;;;;;;5090198;28;20077;-68
2023/08/28 02:31:34;;;;;;;11.60;9.30;;;;;;;;;;5089933;28;20073;-68
2023/08/28 02:34:00;;;;;;;11.88;9.82;;;;;;;;;;5090141;28;20028;-68
2023/08/28 02:36:26;;;;;;;10.98;9.75;;;;;;;;;;5090116;28;20023;-68
2023/08/28 02:38:53;;;;;;;10.80;9.48;;;;;;;;;;5089993;28;20056;-68
2023/08/28 02:41:19;;;;;;;11.80;9.85;;;;;;;;;;5089929;28;20028;-68
2023/08/28 02:43:45;;;;;;;12.40;9.77;;;;;;;;;;5090206;28;20067;-67
2023/08/28 02:46:11;;;;;;;11.30;10.18;;;;;;;;;;5089590;28;20051;-68
2023/08/28 02:48:37;;;;;;;14.82;9.98;;;;;;;;;;5089039;28;20075;-67
2023/08/28 02:51:03;;;;;;;11.50;10.40;;;;;;;;;;5089610;28;20020;-67
2023/08/28 02:53:29;;;;;;;13.35;10.88;;;;;;;;;;5089674;28;20024;-68
2023/08/28 02:56:10;;;;;;;13.85;11.70;;;;;;;;;;5089688;28;20028;-68
2023/08/28 02:58:36;;;;;;;15.55;11.88;;;;;;;;;;5089626;28;20020;-67
2023/08/28 03:01:03;;;;;;;12.95;11.35;;;;;;;;;;5090051;28;20036;-68
2023/08/28 03:03:30;;;;;;;15.50;11.43;;;;;;;;;;5089769;28;20051;-68
2023/08/28 03:05:57;;;;;;;18.90;12.23;;;;;;;;;;5090337;28;20016;-68
2023/08/28 03:08:23;;;;;;;13.93;11.68;;;;;;;;;;5089359;28;20043;-68
2023/08/28 03:10:49;;;;;;;13.68;10.90;;;;;;;;;;5089577;28;20024;-68
2023/08/28 03:13:15;;;;;;;13.68;11.15;;;;;;;;;;5089470;28;20104;-68
2023/08/28 03:15:43;;;;;;;14.25;11.30;;;;;;;;;;5071371;28;20434;-67
2023/08/28 03:18:09;;;;;;;13.88;11.52;;;;;;;;;;5089282;28;20028;-68
2023/08/28 03:20:35;;;;;;;13.73;9.80;;;;;;;;;;5088966;28;20485;-68
2023/08/28 03:23:02;;;;;;;11.98;10.30;;;;;;;;;;5089310;28;20024;-69
2023/08/28 03:25:28;;;;;;;13.95;10.50;;;;;;;;;;5089093;28;20028;-68
2023/08/28 03:27:54;;;;;;;13.38;11.00;;;;;;;;;;5089160;28;20400;-70
2023/08/28 03:30:20;;;;;;;15.32;10.98;;;;;;;;;;5089324;28;20069;-69
2023/08/28 03:32:46;;;;;;;15.13;11.38;;;;;;;;;;5070676;28;20482;-68
2023/08/28 03:35:14;;;;;;;13.40;12.00;;;;;;;;;;5088939;28;20024;-68
2023/08/28 03:37:40;;;;;;;16.20;12.15;;;;;;;;;;5089065;28;20016;-68
2023/08/28 03:40:06;;;;;;;14.07;11.98;;;;;;;;;;5089184;28;20036;-69
2023/08/28 03:42:32;;;;;;;12.90;11.48;;;;;;;;;;5089080;28;20687;-68
2023/08/28 03:44:58;;;;;;;13.27;11.75;;;;;;;;;;5089629;28;20399;-69
2023/08/28 03:47:24;;;;;;;14.60;12.95;;;;;;;;;;5089047;28;20119;-68
2023/08/28 03:49:50;;;;;;;18.70;14.60;;;;;;;;;;5088578;28;20127;-68
2023/08/28 03:52:16;;;;;;;14.55;11.82;;;;;;;;;;5089174;28;20541;-68
2023/08/28 03:54:42;;;;;;;18.70;12.95;;;;;;;;;;5089011;28;20111;-69
2023/08/28 03:57:08;;;;;;;12.73;11.32;;;;;;;;;;5088892;28;20031;-68
2023/08/28 03:59:35;;;;;;;15.57;11.85;;;;;;;;;;5088560;28;20465;-68
2023/08/28 04:02:03;;;;;;;15.55;12.73;;;;;;;;;;5088760;28;20028;-69
2023/08/28 04:04:29;;;;;;;17.65;14.75;;;;;;;;;;5089077;28;20020;-69
2023/08/28 04:06:58;;;;;;;14.00;12.48;;;;;;;;;;5090442;28;20396;-68
2023/08/28 04:09:24;;;;;;;16.58;14.30;;;;;;;;;;5093350;28;20044;-68
2023/08/28 04:11:51;;;;;;;21.35;14.90;;;;;;;;;;5093126;28;20028;-68
2023/08/28 04:14:17;;;;;;;18.58;14.32;;;;;;;;;;5092931;28;20470;-68
2023/08/28 04:16:44;;;;;;;17.52;13.13;;;;;;;;;;5092847;28;20024;-68
2023/08/28 04:19:10;;;;;;;16.52;13.15;;;;;;;;;;5092554;28;20035;-68
2023/08/28 04:21:36;;;;;;;14.27;12.52;;;;;;;;;;5092690;28;20024;-68
2023/08/28 04:24:02;;;;;;;14.25;12.32;;;;;;;;;;5092444;28;20032;-68
2023/08/28 04:26:28;;;;;;;15.45;13.82;;;;;;;;;;5092456;28;20124;-69
2023/08/28 04:28:54;;;;;;;15.57;12.93;;;;;;;;;;5092377;28;20111;-68
2023/08/28 04:31:20;;;;;;;18.83;14.15;;;;;;;;;;5092506;28;20016;-68
2023/08/28 04:33:46;;;;;;;17.17;14.18;;;;;;;;;;5092152;28;20020;-68
2023/08/28 04:36:12;;;;;;;17.58;14.23;;;;;;;;;;5092094;28;20032;-68
2023/08/28 04:38:38;;;;;;;21.75;15.20;;;;;;;;;;5092108;28;20459;-69
2023/08/28 04:41:04;;;;;;;18.73;14.00;;;;;;;;;;5092241;28;20035;-68
2023/08/28 04:43:30;;;;;;;16.23;14.52;;;;;;;;;;5092341;28;20057;-68
2023/08/28 04:45:56;;;;;;;20.20;15.52;;;;;;;;;;5092864;28;20024;-68
2023/08/28 04:48:22;;;;;;;18.73;15.48;;;;;;;;;;5092129;28;20397;-69
2023/08/28 04:50:48;;;;;;;17.02;15.20;;;;;;;;;;5092253;28;20027;-68
2023/08/28 04:53:14;;;;;;;18.85;15.80;;;;;;;;;;5091138;28;20016;-69
2023/08/28 04:55:40;;;;;;;19.85;16.27;;;;;;;;;;5092021;28;20039;-68
2023/08/28 04:58:06;;;;;;;20.88;18.10;;;;;;;;;;5074060;28;20464;-67
2023/08/28 05:00:32;;;;;;;21.13;17.45;;;;;;;;;;5092023;28;20430;-68
2023/08/28 05:02:58;;;;;;;23.95;18.02;;;;;;;;;;5091829;28;20028;-68
2023/08/28 05:05:24;;;;;;;20.10;18.00;;;;;;;;;;5091967;28;20050;-68
2023/08/28 05:07:50;;;;;;;22.05;17.65;;;;;;;;;;5091495;28;20089;-68
2023/08/28 05:10:16;;;;;;;24.05;18.42;;;;;;;;;;5091293;28;20044;-68
2023/08/28 05:12:42;;;;;;;22.55;18.30;;;;;;;;;;5091689;28;20410;-68
2023/08/28 05:15:08;;;;;;;22.45;19.10;;;;;;;;;;5091882;28;20024;-69
2023/08/28 05:17:34;;;;;;;23.65;18.23;;;;;;;;;;5090616;28;20478;-69
2023/08/28 05:20:00;;;;;;;22.15;18.08;;;;;;;;;;5090382;28;20470;-69
2023/08/28 05:22:26;;;;;;;20.35;18.20;;;;;;;;;;5092157;28;20032;-67
2023/08/28 05:24:52;;;;;;;27.25;19.52;;;;;;;;;;5091504;28;20063;-68
2023/08/28 05:27:18;;;;;;;20.70;18.48;;;;;;;;;;5090733;28;20043;-67
2023/08/28 05:29:44;;;;;;;21.85;19.55;;;;;;;;;;5091468;28;20020;-68
2023/08/28 05:32:10;;;;;;;22.52;17.92;;;;;;;;;;5091123;28;20028;-67
2023/08/28 05:34:36;;;;;;;21.25;18.90;;;;;;;;;;5090968;28;20028;-67
2023/08/28 05:37:02;;;;;;;22.38;19.67;;;;;;;;;;5091261;28;20036;-69
2023/08/28 05:39:28;;;;;;;19.67;17.58;;;;;;;;;;5090727;28;20024;-68
2023/08/28 05:41:54;;;;;;;24.60;19.33;;;;;;;;;;5091335;28;20401;-68
2023/08/28 05:44:20;;;;;;;23.40;19.73;;;;;;;;;;5091142;28;20043;-67
2023/08/28 05:46:46;;;;;;;22.30;18.42;;;;;;;;;;5072568;28;20028;-67
2023/08/28 05:49:12;;;;;;;22.40;16.75;;;;;;;;;;5091075;28;20826;-69
2023/08/28 05:51:39;;;;;;;19.27;14.30;;;;;;;;;;5090562;28;20039;-69
2023/08/28 05:54:05;;;;;;;18.38;14.25;;;;;;;;;;5090873;28;20028;-69
2023/08/28 05:56:31;;;;;;;21.05;14.20;;;;;;;;;;5090828;28;20032;-70
2023/08/28 05:58:57;;;;;;;17.05;13.73;;;;;;;;;;5090815;28;20032;-69
2023/08/28 06:01:23;;;;;;;13.60;9.68;;;;;;;;;;5090513;28;20137;-69
2023/08/28 06:03:55;;;;;;;15.50;11.55;;;;;;;;;;5090405;28;20016;-70
2023/08/28 06:06:21;;;;;;;15.50;13.15;;;;;;;;;;5091016;28;20016;-69
2023/08/28 06:08:47;;;;;;;13.88;12.10;;;;;;;;;;5089976;28;20054;-68
2023/08/28 06:11:13;;;;;;;14.95;8.82;;;;;;;;;;5090865;28;20020;-68
2023/08/28 06:13:39;;;;;;;17.77;15.13;;;;;;;;;;5089147;28;20028;-68
2023/08/28 06:16:06;;;;;;;17.00;11.68;;;;;;;;;;5089553;28;20050;-68
2023/08/28 06:18:32;;;;;;;13.23;11.82;;;;;;;;;;5090064;28;20057;-68
2023/08/28 06:20:58;;;;;;;16.25;10.18;;;;;;;;;;5090273;28;20520;-69
2023/08/28 06:23:24;;;;;;;10.35;6.53;;;;;;;;;;5090547;28;20028;-68
2023/08/28 06:25:50;;;;;;;8.20;2.65;;;;;;;;;;5090267;28;20024;-68
2023/08/28 06:28:17;;;;;;;6.95;2.47;;;;;;;;;;5090773;28;20028;-68
2023/08/28 06:30:43;;;;;;;8.90;1.95;;;;;;;;;;5089884;28;20032;-68
2023/08/28 06:33:09;;;;;;;7.50;1.70;;;;;;;;;;5090151;28;20024;-69
2023/08/28 06:35:35;;;;;;;4.95;2.10;;;;;;;;;;5089651;28;20588;-69
2023/08/28 06:38:01;;;;;;;5.20;1.65;;;;;;;;;;5090551;28;20027;-69
2023/08/28 06:40:27;;;;;;;3.72;1.63;;;;;;;;;;5090265;28;20028;-69
2023/08/28 06:42:53;;;;;;;6.10;2.15;;;;;;;;;;5089595;28;20465;-69
2023/08/28 06:45:19;;;;;;;4.60;1.77;;;;;;;;;;5089930;28;20024;-69
2023/08/28 06:47:45;;;;;;;7.40;2.75;;;;;;;;;;5090453;28;20036;-69
2023/08/28 06:50:11;;;;;;;9.25;2.05;;;;;;;;;;5090032;28;20028;-69
2023/08/28 06:52:37;;;;;;;7.82;5.53;;;;;;;;;;5088896;28;20219;-69
2023/08/28 06:55:03;;;;;;;8.98;6.35;;;;;;;;;;5088943;28;20035;-68
2023/08/28 06:57:29;;;;;;;11.25;8.23;;;;;;;;;;5088913;28;20020;-69
2023/08/28 06:59:55;;;;;;;12.65;8.68;;;;;;;;;;5088842;28;20035;-69
2023/08/28 07:02:21;;;;;;;11.02;7.95;;;;;;;;;;5089721;28;20020;-68
2023/08/28 07:04:47;;;;;;;10.70;9.60;;;;;;;;;;5089233;28;20032;-69
2023/08/28 07:07:19;;;;;;;11.07;7.90;;;;;;;;;;5089086;28;20071;-69
2023/08/28 07:09:46;;;;;;;10.00;7.75;;;;;;;;;;5089325;28;20143;-69
2023/08/28 07:12:12;;;;;;;12.02;9.23;;;;;;;;;;5089110;28;20040;-69
2023/08/28 07:14:38;;;;;;;12.57;7.85;;;;;;;;;;5089306;28;20024;-69
2023/08/28 07:17:04;;;;;;;9.40;7.85;;;;;;;;;;5089364;28;20016;-69
2023/08/28 07:19:30;;;;;;;10.95;8.40;;;;;;;;;;5089041;28;20028;-69
2023/08/28 07:21:59;;;;;;;5.70;3.97;;;;;;;;;;5089346;28;20027;-69
2023/08/28 07:24:25;;;;;;;5.72;2.13;;;;;;;;;;5089858;28;20532;-69
2023/08/28 07:26:52;;;;;;;5.22;2.15;;;;;;;;;;5089663;28;20024;-69
2023/08/28 07:29:18;;;;;;;6.18;2.85;;;;;;;;;;5089062;28;20020;-69
2023/08/28 07:31:44;;;;;;;7.88;1.98;;;;;;;;;;5089513;28;20107;-70
2023/08/28 07:34:10;;;;;;;5.10;2.33;;;;;;;;;;5089017;28;20473;-70
2023/08/28 07:36:40;;;;;;;5.25;3.15;;;;;;;;;;5089292;28;20139;-69
2023/08/28 07:39:06;;;;;;;8.32;1.95;;;;;;;;;;5089435;28;20049;-69
2023/08/28 07:41:32;;;;;;;4.82;2.42;;;;;;;;;;5088633;28;20016;-69
2023/08/28 07:43:58;;;;;;;5.57;2.40;;;;;;;;;;5088961;28;20016;-69
2023/08/28 07:46:25;;;;;;;6.13;2.42;;;;;;;;;;5089302;28;20020;-68
2023/08/28 07:48:52;;;;;;;7.85;3.65;;;;;;;;;;5088627;28;20032;-69
2023/08/28 07:51:18;;;;;;;9.15;3.35;;;;;;;;;;5088984;28;21063;-69
2023/08/28 07:53:44;;;;;;;5.40;2.22;;;;;;;;;;5089061;28;20032;-68
2023/08/28 07:56:10;;;;;;;6.95;4.50;;;;;;;;;;5087938;28;20451;-69
2023/08/28 07:58:36;;;;;;;6.57;2.60;;;;;;;;;;5088829;28;20073;-68
2023/08/28 08:01:03;;;;;;;11.35;7.55;;;;;;;;;;5088826;28;20040;-68
2023/08/28 08:03:29;;;;;;;5.30;2.42;;;;;;;;;;5070613;28;20432;-68
2023/08/28 08:05:55;;;;;;;7.93;2.75;;;;;;;;;;5088936;28;20036;-68
2023/08/28 08:08:21;;;;;;;4.63;1.98;;;;;;;;;;5089240;28;20052;-68
2023/08/28 08:10:47;;;;;;;5.40;2.42;;;;;;;;;;5088491;28;20028;-68
2023/08/28 08:13:13;;;;;;;5.65;2.67;;;;;;;;;;5088388;28;20454;-68
2023/08/28 08:15:39;;;;;;;8.98;5.53;;;;;;;;;;5088288;28;20036;-67
2023/08/28 08:18:05;;;;;;;12.05;5.28;;;;;;;;;;5088981;28;20058;-67
2023/08/28 08:20:31;;;;;;;6.85;3.10;;;;;;;;;;5088579;28;20024;-67
2023/08/28 08:22:57;;;;;;;9.40;5.13;;;;;;;;;;5087912;28;20032;-67
2023/08/28 08:25:23;;;;;;;6.97;4.15;;;;;;;;;;5087498;28;20447;-67
2023/08/28 08:27:49;;;;;;;6.15;3.65;;;;;;;;;;5088589;28;20036;-67
2023/08/28 08:30:15;;;;;;;5.75;3.03;;;;;;;;;;5088402;28;20032;-68
2023/08/28 08:32:43;;;;;;;4.95;2.13;;;;;;;;;;5088276;28;20024;-67
2023/08/28 08:35:09;;;;;;;6.10;2.38;;;;;;;;;;5087955;28;20123;-69
2023/08/28 08:37:35;;;;;;;5.65;2.90;;;;;;;;;;5088744;28;20020;-69
2023/08/28 08:40:02;;;;;;;3.97;1.90;;;;;;;;;;5088655;28;20028;-68
2023/08/28 08:42:28;;;;;;;5.70;3.40;;;;;;;;;;5089230;28;20110;-69
2023/08/28 08:44:55;;;;;;;7.18;2.95;;;;;;;;;;5088954;28;20032;-67
2023/08/28 08:47:21;;;;;;;5.20;2.40;;;;;;;;;;5088609;28;20024;-67
2023/08/28 08:49:52;;;;;;;4.57;1.83;;;;;;;;;;5088243;28;20054;-68
2023/08/28 08:52:19;;;;;;;5.03;2.00;;;;;;;;;;5088602;28;20031;-68
2023/08/28 08:54:45;;;;;;;4.53;2.25;;;;;;;;;;5092187;28;20048;-68
2023/08/28 08:57:35;;;;;;;6.05;1.80;;;;;;;;;;5090903;28;20103;-68
2023/08/28 09:00:01;;;;;;;5.10;1.90;;;;;;;;;;5089569;28;20074;-67
2023/08/28 09:02:30;;;;;;;5.45;2.00;;;;;;;;;;5091597;28;20055;-68
2023/08/28 09:04:56;;;;;;;6.88;1.55;;;;;;;;;;5091857;28;20031;-68
2023/08/28 09:07:22;;;;;;;6.45;2.00;;;;;;;;;;5091920;28;20070;-68
2023/08/28 09:09:49;;;;;;;2.95;1.73;;;;;;;;;;5091895;28;20503;-69
2023/08/28 09:12:16;;;;;;;3.88;1.58;;;;;;;;;;5091174;28;20470;-68
2023/08/28 09:14:42;;;;;;;3.25;1.67;;;;;;;;;;5091718;28;20489;-68
2023/08/28 09:17:08;;;;;;;3.58;1.40;;;;;;;;;;5090170;28;20038;-67
2023/08/28 09:19:35;;;;;;;2.10;1.10;;;;;;;;;;5072758;28;20614;-67
2023/08/28 09:22:03;;;;;;;2.63;1.35;;;;;;;;;;5091909;28;20146;-68
2023/08/28 09:24:30;;;;;;;2.85;1.30;;;;;;;;;;5091473;28;20028;-69
2023/08/28 09:26:56;;;;;;;2.85;1.40;;;;;;;;;;5091589;28;20362;-68
2023/08/28 09:29:23;;;;;;;2.03;1.05;;;;;;;;;;5091485;28;20054;-67
2023/08/28 09:31:50;;;;;;;2.63;1.15;;;;;;;;;;5089660;28;20048;-67
2023/08/28 09:34:18;;;;;;;2.17;0.93;;;;;;;;;;5089546;28;20106;-67
2023/08/28 09:36:44;;;;;;;2.25;0.80;;;;;;;;;;5091181;28;20028;-68
2023/08/28 09:39:11;;;;;;;2.97;0.80;;;;;;;;;;5091103;28;20069;-68
2023/08/28 09:41:42;;;;;;;1.63;0.65;;;;;;;;;;5090758;28;20035;-67
2023/08/28 09:44:09;;;;;;;2.80;0.77;;;;;;;;;;5091433;28;20024;-68
2023/08/28 09:46:38;;;;;;;1.30;0.73;;;;;;;;;;5091381;28;20031;-67
2023/08/28 09:49:05;;;;;;;1.23;0.80;;;;;;;;;;5090446;28;20497;-67
2023/08/28 09:52:03;;;;;;;3.63;1.05;;;;;;;;;;5089828;28;20059;-67
2023/08/28 09:54:29;;;;;;;2.47;0.70;;;;;;;;;;5071066;28;20107;-66
2023/08/28 09:56:55;;;;;;;1.35;0.70;;;;;;;;;;5090523;28;20108;-68
2023/08/28 09:59:21;;;;;;;1.95;0.70;;;;;;;;;;5090525;28;20051;-67
2023/08/28 10:01:47;;;;;;;1.73;0.80;;;;;;;;;;5090050;28;20032;-67
2023/08/28 10:04:14;;;;;;;1.88;0.80;;;;;;;;;;5090127;28;20073;-67
2023/08/28 10:06:49;;;;;;;2.05;0.63;;;;;;;;;;5090633;28;20028;-67
2023/08/28 10:09:18;;;;;;;2.80;1.13;;;;;;;;;;5089905;28;20052;-67
2023/08/28 10:11:45;;;;;;;1.95;0.60;;;;;;;;;;5089929;28;20107;-68
2023/08/28 10:14:11;;;;;;;1.80;0.60;;;;;;;;;;5087446;28;20031;-67
2023/08/28 10:16:41;;;;;;;4.20;1.00;;;;;;;;;;5087630;28;20126;-67
2023/08/28 10:19:14;;;;;;;2.83;0.93;;;;;;;;;;5086938;28;20687;-68
2023/08/28 10:21:41;;;;;;;1.40;0.70;;;;;;;;;;5086963;28;20438;-67
2023/08/28 10:24:07;;;;;;;1.60;0.70;;;;;;;;;;5087567;28;20024;-68
2023/08/28 10:26:34;;;;;;;1.88;0.73;;;;;;;;;;5088083;28;20032;-67
2023/08/28 10:29:02;;;;;;;1.38;0.55;;;;;;;;;;5088541;28;20079;-68
2023/08/28 10:31:29;;;;;;;2.60;0.90;;;;;;;;;;5088641;28;20046;-67
2023/08/28 10:33:56;;;;;;;1.98;0.80;;;;;;;;;;5088730;28;20031;-67
2023/08/28 10:36:22;;;;;;;2.80;0.68;;;;;;;;;;5088537;28;20028;-68
2023/08/28 10:38:50;;;;;;;1.35;0.50;;;;;;;;;;5088091;28;20051;-68
2023/08/28 10:41:16;;;;;;;2.60;0.68;;;;;;;;;;5088637;28;20052;-68
2023/08/28 10:43:42;;;;;;;3.20;0.80;;;;;;;;;;5088099;28;20024;-68
2023/08/28 10:46:08;;;;;;;3.47;1.27;;;;;;;;;;5088943;28;20028;-68
2023/08/28 10:48:38;;;;;;;2.95;0.52;;;;;;;;;;5090271;28;20039;-68
2023/08/28 10:51:04;;;;;;;3.92;0.70;;;;;;;;;;5090092;28;20051;-69
2023/08/28 10:53:30;;;;;;;1.65;0.50;;;;;;;;;;5089609;28;20024;-67
2023/08/28 10:55:57;;;;;;;3.58;0.90;;;;;;;;;;5089930;28;20024;-69
2023/08/28 10:58:25;;;;;;;1.30;0.60;;;;;;;;;;5089730;28;20048;-68
2023/08/28 11:01:11;;;;;;;1.67;0.60;;;;;;;;;;5089802;28;20024;-68
2023/08/28 11:03:52;;;;;;;1.90;0.57;;;;;;;;;;5071596;28;20452;-68
2023/08/28 11:06:42;;;;;;;1.58;1.05;;;;;;;;;;5089389;28;20020;-67
2023/08/28 11:09:27;;;;;;;1.15;0.65;;;;;;;;;;5089374;28;20079;-67
2023/08/28 11:12:13;;;;;;;1.88;0.75;;;;;;;;;;5089714;28;20808;-67
2023/08/28 11:14:40;;;;;;;1.38;0.50;;;;;;;;;;5089023;28;20036;-67
2023/08/28 11:17:09;;;;;;;1.77;0.52;;;;;;;;;;5071447;28;20036;-68
2023/08/28 11:19:56;;;;;;;2.03;0.87;;;;;;;;;;5089374;28;20028;-68
2023/08/28 11:22:41;;;;;;;1.35;0.43;;;;;;;;;;5089289;28;20266;-67
2023/08/28 11:25:09;;;;;;;1.92;0.63;;;;;;;;;;5089113;28;20551;-68
2023/08/28 11:27:38;;;;;;;1.27;0.52;;;;;;;;;;5089442;28;20035;-68
2023/08/28 11:30:07;;;;;;;3.30;0.70;;;;;;;;;;5089295;28;20071;-68
2023/08/28 11:32:34;;;;;;;3.00;0.93;;;;;;;;;;5089139;28;20089;-69
2023/08/28 11:35:13;;;;;;;1.35;0.63;;;;;;;;;;5089290;28;20025;-69
2023/08/28 11:37:40;;;;;;;1.30;0.50;;;;;;;;;;5089185;28;20035;-69
2023/08/28 11:40:08;;;;;;;5.60;1.13;;;;;;;;;;5089175;28;20028;-69
2023/08/28 11:42:34;;;;;;;2.78;0.95;;;;;;;;;;5089256;28;20054;-69
2023/08/28 11:45:00;;;;;;;2.75;0.90;;;;;;;;;;5089010;28;20023;-69
2023/08/28 11:47:30;;;;;;;1.33;0.40;;;;;;;;;;5088692;28;20039;-70
2023/08/28 11:49:57;;;;;;;0.98;0.47;;;;;;;;;;5089434;28;20135;-69
2023/08/28 11:52:23;;;;;;;1.08;0.35;;;;;;;;;;5071062;28;20386;-68
2023/08/28 11:54:51;;;;;;;1.05;0.45;;;;;;;;;;5089618;28;20046;-68
2023/08/28 11:57:18;;;;;;;1.92;0.52;;;;;;;;;;5088735;28;20085;-68
2023/08/28 11:59:44;;;;;;;2.00;0.60;;;;;;;;;;5089154;28;20059;-68
2023/08/28 12:02:14;;;;;;;2.10;0.75;;;;;;;;;;5088604;28;20066;-70
2023/08/28 12:04:43;;;;;;;2.03;0.60;;;;;;;;;;5088967;28;20028;-67
2023/08/28 12:07:22;;;;;;;1.30;0.30;;;;;;;;;;5088708;28;20028;-68
2023/08/28 12:09:49;;;;;;;2.78;0.90;;;;;;;;;;5089150;28;20413;-67
2023/08/28 12:12:16;;;;;;;3.00;0.90;;;;;;;;;;5088988;28;20035;-69
2023/08/28 12:14:46;;;;;;;2.63;0.70;;;;;;;;;;5070880;28;20046;-68
2023/08/28 12:17:19;;;;;;;3.33;0.73;;;;;;;;;;5089275;28;20024;-67
2023/08/28 12:19:45;;;;;;;2.00;0.52;;;;;;;;;;5089095;28;20019;-68
2023/08/28 12:22:12;;;;;;;2.55;0.98;;;;;;;;;;5087564;28;20069;-67
2023/08/28 12:24:42;;;;;;;1.92;0.60;;;;;;;;;;5087606;28;20111;-68
2023/08/28 12:27:09;;;;;;;3.28;0.68;;;;;;;;;;5087238;28;20024;-68
2023/08/28 12:29:35;;;;;;;2.03;0.45;;;;;;;;;;5091297;28;20027;-68
2023/08/28 12:32:06;;;;;;;1.40;0.63;;;;;;;;;;5091305;28;20074;-68
2023/08/28 12:34:32;;;;;;;2.15;0.80;;;;;;;;;;5091024;28;20016;-69
2023/08/28 12:37:08;;;;;;;2.42;0.70;;;;;;;;;;5085246;28;20417;-68
2023/08/28 12:39:35;;;;;;;3.15;0.80;;;;;;;;;;5077866;28;20038;-68
2023/08/28 12:42:02;;;;;;;1.65;0.50;;;;;;;;;;5092802;28;20077;-68
2023/08/28 12:44:28;;;;;;;1.40;0.40;;;;;;;;;;5092692;28;20125;-68
2023/08/28 12:46:55;;;;;;;2.85;0.88;;;;;;;;;;5092234;28;20020;-68
2023/08/28 12:49:21;;;;;;;2.90;0.55;;;;;;;;;;5091870;28;20061;-68
2023/08/28 12:51:48;;;;;;;1.80;0.55;;;;;;;;;;5092160;28;20024;-67
2023/08/28 12:54:19;;;;;;;3.47;0.73;;;;;;;;;;5092214;28;20028;-68
2023/08/28 12:56:45;;;;;;;4.53;0.70;;;;;;;;;;5092032;28;20020;-68
2023/08/28 12:59:11;;;;;;;1.77;0.52;;;;;;;;;;5092235;28;20026;-68
2023/08/28 13:01:37;;;;;;;2.97;0.82;;;;;;;;;;5091829;28;20016;-68
2023/08/28 13:04:05;;;;;;;2.30;0.80;;;;;;;;;;5091782;28;20028;-68
2023/08/28 13:06:31;;;;;;;1.75;0.60;;;;;;;;;;5091935;28;20448;-68
2023/08/28 13:08:57;;;;;;;3.28;0.90;;;;;;;;;;5091819;28;20082;-68
2023/08/28 13:11:23;;;;;;;2.95;0.90;;;;;;;;;;5091870;28;20078;-68
2023/08/28 13:13:51;;;;;;;2.00;0.60;;;;;;;;;;5091323;28;20008;-68
2023/08/28 13:16:17;;;;;;;1.58;0.60;;;;;;;;;;5091530;28;20474;-68
2023/08/28 13:18:43;;;;;;;3.25;0.70;;;;;;;;;;5091683;28;20077;-67
2023/08/28 13:21:10;;;;;;;1.63;0.73;;;;;;;;;;5090633;28;20032;-68
2023/08/28 13:23:37;;;;;;;1.95;0.70;;;;;;;;;;5091278;28;20088;-68
2023/08/28 13:26:03;;;;;;;5.35;1.25;;;;;;;;;;5088526;28;20036;-68
2023/08/28 13:28:29;;;;;;;2.58;0.80;;;;;;;;;;5070342;28;20090;-67
2023/08/28 13:30:55;;;;;;;2.80;0.70;;;;;;;;;;5071029;28;20054;-68
2023/08/28 13:33:21;;;;;;;2.47;0.68;;;;;;;;;;5071204;28;20016;-68
2023/08/28 13:35:51;;;;;;;3.03;0.77;;;;;;;;;;5071149;28;20733;-68
2023/08/28 13:38:17;;;;;;;2.20;0.80;;;;;;;;;;5070658;28;20032;-68
2023/08/28 13:40:44;;;;;;;1.17;0.68;;;;;;;;;;5070154;28;20466;-68
2023/08/28 13:43:10;;;;;;;3.10;0.60;;;;;;;;;;5071126;28;20501;-67
2023/08/28 13:45:36;;;;;;;2.47;0.70;;;;;;;;;;5071060;28;20032;-68
2023/08/28 13:48:02;;;;;;;1.80;0.65;;;;;;;;;;5070601;28;20036;-68
2023/08/28 13:50:29;;;;;;;3.10;0.90;;;;;;;;;;5070192;28;20025;-68
2023/08/28 13:52:55;;;;;;;2.47;0.50;;;;;;;;;;5070816;28;20103;-67
2023/08/28 13:55:21;;;;;;;1.75;0.68;;;;;;;;;;5070790;28;20036;-67
2023/08/28 13:57:50;;;;;;;1.67;0.50;;;;;;;;;;5050822;28;20024;-67
2023/08/28 14:00:16;;;;;;;2.33;0.50;;;;;;;;;;5068700;28;20031;-68
2023/08/28 14:02:43;;;;;;;2.10;0.55;;;;;;;;;;5068694;28;20737;-69
2023/08/28 14:05:12;;;;;;;5.07;0.90;;;;;;;;;;5068700;28;20047;-67
2023/08/28 14:07:39;;;;;;;3.90;0.70;;;;;;;;;;5068902;28;20028;-67
2023/08/28 14:10:05;;;;;;;2.25;0.63;;;;;;;;;;5051075;28;20070;-67
2023/08/28 14:12:31;;;;;;;2.58;0.60;;;;;;;;;;5070106;28;20433;-67
2023/08/28 14:15:00;;;;;;;4.13;0.75;;;;;;;;;;5070927;28;20032;-67
2023/08/28 14:17:27;;;;;;;2.00;0.82;;;;;;;;;;5071001;28;20067;-67
2023/08/28 14:19:53;;;;;;;2.28;0.70;;;;;;;;;;5070129;28;20057;-67
2023/08/28 14:22:19;;;;;;;1.45;0.52;;;;;;;;;;5070432;28;20059;-67
2023/08/28 14:24:45;;;;;;;3.17;0.90;;;;;;;;;;5070034;28;20063;-67
2023/08/28 14:27:11;;;;;;;2.63;0.65;;;;;;;;;;5069967;28;20470;-68
2023/08/28 14:29:37;;;;;;;1.42;0.55;;;;;;;;;;5070506;28;20020;-68
2023/08/28 14:32:03;;;;;;;2.25;0.60;;;;;;;;;;5069943;28;20024;-69
2023/08/28 14:34:29;;;;;;;2.50;0.55;;;;;;;;;;5069308;28;20116;-68